Terminal Aerodrome Forecast
Issued by NWS Shreveport, LA

Home | Current Version | Previous Version | Text Only | Print | Product List | Glossary On
Versions: 1 2 3 4 5 6 7 8 9 10 11 12 13 14 15 16 17 18
711
FTUS44 KSHV 042056 AAA
TAFTXK
TAF AMD
KTXK 042056Z 0421/0518 35005KT P6SM BKN015 OVC025
     FM050300 04004KT P6SM OVC015
     FM051100 06007KT 5SM -RA BR BKN009 OVC015
     FM051500 06007KT 3SM RA BR OVC008=

USA.gov is the U.S. government's official web portal to all federal, state and local government web resources and services.